createdAt,value
2019-01-19T00:00:36.745Z,3.20
2019-01-19T00:03:25.310Z,3.20
2019-01-19T00:06:37.714Z,3.20
2019-01-19T00:09:21.218Z,3.20
2019-01-19T00:12:04.124Z,3.10
2019-01-19T00:14:41.115Z,3.10
2019-01-19T00:17:50.139Z,3.10
2019-01-19T00:20:47.476Z,3.10
2019-01-19T00:24:11.579Z,3.20
2019-01-19T00:27:27.474Z,3.20
2019-01-19T00:30:23.406Z,3.30
2019-01-19T00:33:18.180Z,3.30
2019-01-19T00:36:10.827Z,3.20
2019-01-19T00:38:55.971Z,3.20
2019-01-19T00:41:38.087Z,3.20
2019-01-19T00:44:25.534Z,3.30
2019-01-19T00:47:09.796Z,3.20
2019-01-19T00:49:47.626Z,3.20
2019-01-19T00:52:40.974Z,3.20
2019-01-19T00:55:29.097Z,3.20
2019-01-19T00:58:07.862Z,3.20
2019-01-19T01:00:47.483Z,3.20
2019-01-19T01:03:37.961Z,3.20
2019-01-19T01:06:37.062Z,3.20
2019-01-19T01:09:32.765Z,3.20
2019-01-19T01:12:12.003Z,3.30
2019-01-19T01:15:49.069Z,3.30
2019-01-19T01:18:49.407Z,3.30
2019-01-19T01:21:49.206Z,3.30
2019-01-19T01:24:43.710Z,3.30
2019-01-19T01:27:22.167Z,3.30
2019-01-19T01:30:20.777Z,3.30
2019-01-19T01:33:12.686Z,3.30
2019-01-19T01:36:17.936Z,3.30
2019-01-19T01:39:06.375Z,3.30
2019-01-19T01:41:45.443Z,3.20
2019-01-19T01:44:25.893Z,3.20
2019-01-19T01:47:34.038Z,3.20
2019-01-19T01:50:09.462Z,3.30
2019-01-19T01:53:22.814Z,3.30
2019-01-19T01:55:55.714Z,3.40
2019-01-19T01:58:54.777Z,3.40
2019-01-19T02:01:58.503Z,3.40
2019-01-19T02:04:55.257Z,3.50
2019-01-19T02:07:33.967Z,3.40
2019-01-19T02:10:52.226Z,3.40
2019-01-19T02:13:54.879Z,3.30
2019-01-19T02:17:03.894Z,3.30
2019-01-19T02:20:04.667Z,3.30
2019-01-19T02:23:11.029Z,3.30
2019-01-19T02:26:17.650Z,3.30
2019-01-19T02:29:09.975Z,3.30
2019-01-19T02:32:07.942Z,3.20
2019-01-19T02:35:27.279Z,3.20
2019-01-19T02:38:38.978Z,3.10
2019-01-19T02:41:18.632Z,3.20
2019-01-19T02:44:33.189Z,3.20
2019-01-19T02:47:25.694Z,3.20
2019-01-19T02:50:08.039Z,3.20
2019-01-19T02:52:46.632Z,3.30
2019-01-19T02:56:06.242Z,3.20
2019-01-19T02:59:34.450Z,3.20
2019-01-19T03:02:39.547Z,3.10
2019-01-19T03:05:33.022Z,3.10
2019-01-19T03:08:45.987Z,3.00
2019-01-19T03:11:52.594Z,3.00
2019-01-19T03:14:48.918Z,2.90
2019-01-19T03:17:57.840Z,2.80
2019-01-19T03:20:39.694Z,2.80
2019-01-19T03:23:40.643Z,2.70
2019-01-19T03:26:20.250Z,2.70
2019-01-19T03:29:31.899Z,2.70
2019-01-19T03:32:20.278Z,2.80
2019-01-19T03:35:29.325Z,2.70
2019-01-19T03:38:29.523Z,2.60
2019-01-19T03:41:37.431Z,2.60
2019-01-19T03:44:25.126Z,2.50
2019-01-19T03:47:10.507Z,2.50
2019-01-19T03:50:10.904Z,2.50
2019-01-19T03:52:49.026Z,2.60
2019-01-19T03:55:55.973Z,2.60
2019-01-19T03:59:12.832Z,2.60
2019-01-19T04:02:25.887Z,2.70
2019-01-19T04:05:18.183Z,2.80
2019-01-19T04:08:01.475Z,2.90
2019-01-19T04:10:43.320Z,2.90
2019-01-19T04:13:54.026Z,2.90
2019-01-19T04:17:10.106Z,2.90
2019-01-19T04:20:26.643Z,3.00
2019-01-19T04:22:59.812Z,3.00
2019-01-19T04:25:36.550Z,3.00
2019-01-19T04:28:05.905Z,3.10
2019-01-19T04:30:34.798Z,3.10
2019-01-19T04:33:05.352Z,3.10
2019-01-19T04:35:34.086Z,3.20
2019-01-19T04:38:02.852Z,3.20
2019-01-19T04:40:31.779Z,3.20
2019-01-19T04:43:00.538Z,3.30
2019-01-19T04:45:29.443Z,3.20
2019-01-19T04:47:58.160Z,3.10
2019-01-19T04:50:26.827Z,3.00
2019-01-19T04:52:55.466Z,3.10
2019-01-19T04:55:24.186Z,3.00
2019-01-19T04:57:52.846Z,3.10
2019-01-19T05:00:21.940Z,3.10
2019-01-19T05:02:50.692Z,3.20
2019-01-19T05:05:19.465Z,3.10
2019-01-19T05:07:48.456Z,3.20
2019-01-19T05:10:18.337Z,3.30
2019-01-19T05:12:47.004Z,3.20
2019-01-19T05:15:18.317Z,3.10
2019-01-19T05:17:47.491Z,2.90
2019-01-19T05:20:16.338Z,2.80
2019-01-19T05:22:44.999Z,2.60
2019-01-19T05:25:14.798Z,2.50
2019-01-19T05:27:43.449Z,2.40
2019-01-19T05:30:15.591Z,2.40
2019-01-19T05:32:44.905Z,2.30
2019-01-19T05:35:14.780Z,2.20
2019-01-19T05:37:43.456Z,2.10
2019-01-19T05:40:13.006Z,2.00
2019-01-19T05:42:41.667Z,1.90
2019-01-19T05:45:12.316Z,1.80
2019-01-19T05:47:41.315Z,1.70
2019-01-19T05:50:13.120Z,1.70
2019-01-19T05:52:41.791Z,1.60
2019-01-19T05:55:10.539Z,1.50
2019-01-19T05:57:39.210Z,1.50
2019-01-19T06:00:12.011Z,1.50
2019-01-19T06:02:40.711Z,1.40
2019-01-19T06:05:09.542Z,1.30
2019-01-19T06:07:38.439Z,1.30
2019-01-19T06:10:09.314Z,1.20
2019-01-19T06:12:38.203Z,1.20
2019-01-19T06:15:08.630Z,1.10
2019-01-19T06:17:37.543Z,1.10
2019-01-19T06:20:08.526Z,1.00
2019-01-19T06:22:37.304Z,1.00
2019-01-19T06:25:07.122Z,1.00
2019-01-19T06:27:36.873Z,1.10
2019-01-19T06:30:07.806Z,1.20
2019-01-19T06:32:36.764Z,1.30
2019-01-19T06:35:06.768Z,1.40
2019-01-19T06:37:35.648Z,1.50
2019-01-19T06:40:06.172Z,1.60
2019-01-19T06:42:34.815Z,1.70
2019-01-19T06:45:03.586Z,1.70
2019-01-19T06:47:32.758Z,1.70
2019-01-19T06:50:33.361Z,1.70
2019-01-19T06:53:02.519Z,1.70
2019-01-19T06:55:35.799Z,1.60
2019-01-19T06:58:04.617Z,1.60
2019-01-19T07:00:33.756Z,1.50
2019-01-19T07:03:02.496Z,1.40
2019-01-19T07:05:31.711Z,1.40
2019-01-19T07:08:00.442Z,1.30
2019-01-19T07:10:29.318Z,1.30
2019-01-19T07:12:57.999Z,1.20
2019-01-19T07:15:27.201Z,1.20
2019-01-19T07:17:56.832Z,1.20
2019-01-19T07:20:28.781Z,1.20
2019-01-19T07:22:57.698Z,1.20
2019-01-19T07:25:26.654Z,1.30
2019-01-19T07:27:55.595Z,1.30
2019-01-19T07:30:24.527Z,1.30
2019-01-19T07:32:53.284Z,1.40
2019-01-19T07:35:22.070Z,1.40
2019-01-19T07:37:52.378Z,1.50
2019-01-19T07:40:21.113Z,1.50
2019-01-19T07:42:54.714Z,1.80
2019-01-19T07:45:23.570Z,2.00
2019-01-19T07:47:52.619Z,2.20
2019-01-19T07:50:21.352Z,2.30
2019-01-19T07:52:50.082Z,2.40
2019-01-19T07:55:20.782Z,2.40
2019-01-19T08:00:44.744Z,2.30
2019-01-19T08:03:14.281Z,2.30
2019-01-19T08:05:42.954Z,2.30
2019-01-19T08:08:11.650Z,2.40
2019-01-19T08:10:41.031Z,2.50
2019-01-19T08:13:09.764Z,2.60
2019-01-19T08:15:38.833Z,2.80
2019-01-19T08:18:07.604Z,3.00
2019-01-19T08:20:36.354Z,3.10
2019-01-19T08:23:05.224Z,3.40
2019-01-19T08:25:33.926Z,3.70
2019-01-19T08:28:02.659Z,4.20
2019-01-19T08:30:31.821Z,4.70
2019-01-19T08:33:00.969Z,5.30
2019-01-19T08:35:30.130Z,6.00
2019-01-19T08:38:00.862Z,6.70
2019-01-19T08:40:32.004Z,7.30
2019-01-19T08:43:07.418Z,7.90
2019-01-19T08:45:36.468Z,8.40
2019-01-19T08:48:05.332Z,8.70
2019-01-19T08:50:34.396Z,8.90
2019-01-19T08:53:03.135Z,9.00
2019-01-19T08:55:31.805Z,8.90
2019-01-19T08:58:00.509Z,9.10
2019-01-19T09:00:29.808Z,9.20
2019-01-19T09:02:58.530Z,9.40
2019-01-19T09:05:27.331Z,9.90
2019-01-19T09:07:56.147Z,10.40
2019-01-19T09:10:24.963Z,10.80
2019-01-19T09:12:55.470Z,10.90
2019-01-19T09:15:24.209Z,11.20
2019-01-19T09:17:53.275Z,11.40
2019-01-19T09:20:22.373Z,11.40
2019-01-19T09:22:54.790Z,11.20
2019-01-19T09:25:23.779Z,11.00
2019-01-19T09:27:52.609Z,11.30
2019-01-19T09:30:21.407Z,11.50
2019-01-19T09:32:50.325Z,11.50
2019-01-19T09:35:19.375Z,11.60
2019-01-19T09:37:48.528Z,11.30
2019-01-19T09:40:17.362Z,11.00
2019-01-19T09:42:46.505Z,11.20
2019-01-19T09:45:15.845Z,11.50
2019-01-19T09:47:44.608Z,11.80
2019-01-19T09:50:14.661Z,11.90
2019-01-19T09:52:43.676Z,11.80
2019-01-19T09:55:14.059Z,11.70
2019-01-19T09:57:43.185Z,11.80
2019-01-19T10:00:14.353Z,11.80
2019-01-19T10:02:43.036Z,11.60
2019-01-19T10:05:18.443Z,11.50
2019-01-19T10:07:48.610Z,11.50
2019-01-19T10:10:18.957Z,11.50
2019-01-19T10:12:47.706Z,11.50
2019-01-19T10:15:17.077Z,11.40
2019-01-19T10:17:45.758Z,11.10
2019-01-19T10:20:25.541Z,11.00
2019-01-19T10:22:55.282Z,10.90
2019-01-19T10:25:24.353Z,11.00
2019-01-19T10:27:54.088Z,10.90
2019-01-19T10:30:25.231Z,10.90
2019-01-19T10:32:53.986Z,10.80
2019-01-19T10:35:23.158Z,10.80
2019-01-19T10:37:56.341Z,10.80
2019-01-19T10:40:22.482Z,10.80
2019-01-19T10:42:51.402Z,10.90
2019-01-19T10:45:22.172Z,10.60
2019-01-19T10:47:50.881Z,10.30
2019-01-19T10:50:20.284Z,10.60
2019-01-19T10:52:49.180Z,10.60
2019-01-19T10:55:22.103Z,10.50
2019-01-19T10:57:51.004Z,10.20
2019-01-19T11:00:22.603Z,9.70
2019-01-19T11:02:51.305Z,9.20
2019-01-19T11:05:20.110Z,8.70
2019-01-19T11:07:49.162Z,8.30
2019-01-19T11:10:20.244Z,7.90
2019-01-19T11:12:49.049Z,7.40
2019-01-19T11:15:18.281Z,6.90
2019-01-19T11:17:47.152Z,6.60
2019-01-19T11:20:21.079Z,6.50
2019-01-19T11:22:49.770Z,6.40
2019-01-19T11:25:18.637Z,6.40
2019-01-19T11:27:47.669Z,6.40
2019-01-19T11:30:18.642Z,6.40
2019-01-19T11:32:47.401Z,6.40
2019-01-19T11:35:16.476Z,6.30
2019-01-19T11:37:45.208Z,6.20
2019-01-19T11:40:17.478Z,6.20
2019-01-19T11:42:46.297Z,6.10
2019-01-19T11:45:17.318Z,6.00
2019-01-19T11:47:46.110Z,6.00
2019-01-19T11:50:15.078Z,5.70
2019-01-19T11:52:44.371Z,5.80
2019-01-19T11:55:16.182Z,5.90
2019-01-19T11:57:48.419Z,6.00
2019-01-19T12:00:19.850Z,5.90
2019-01-19T12:02:52.069Z,6.00
2019-01-19T12:05:21.200Z,6.00
2019-01-19T12:07:50.995Z,6.00
2019-01-19T12:10:22.793Z,6.00
2019-01-19T12:12:52.797Z,5.90
2019-01-19T12:15:21.746Z,6.00
2019-01-19T12:17:54.512Z,6.10
2019-01-19T12:20:30.010Z,6.00
2019-01-19T12:22:58.734Z,6.00
2019-01-19T12:25:27.532Z,6.00
2019-01-19T12:27:59.250Z,6.00
2019-01-19T12:30:34.353Z,5.90
2019-01-19T12:33:00.358Z,5.90
2019-01-19T12:35:29.316Z,5.90
2019-01-19T12:37:58.513Z,6.00
2019-01-19T12:40:34.662Z,5.80
2019-01-19T12:43:33.323Z,5.80
2019-01-19T12:46:05.730Z,5.80
2019-01-19T12:48:35.008Z,5.70
2019-01-19T12:51:08.065Z,5.70
2019-01-19T12:53:37.018Z,5.80
2019-01-19T12:56:08.864Z,6.00
2019-01-19T12:58:37.736Z,5.90
2019-01-19T13:01:07.956Z,5.90
2019-01-19T13:03:36.786Z,6.00
2019-01-19T13:06:38.782Z,6.10
2019-01-19T13:09:17.963Z,6.00
2019-01-19T13:12:14.320Z,6.00
2019-01-19T13:14:54.032Z,5.90
2019-01-19T13:17:53.070Z,5.70
2019-01-19T13:20:43.491Z,5.70
2019-01-19T13:23:33.667Z,5.70
2019-01-19T13:26:18.378Z,5.70
2019-01-19T13:29:33.234Z,5.60
2019-01-19T13:32:42.822Z,5.50
2019-01-19T13:35:41.603Z,5.40
2019-01-19T13:38:19.881Z,5.50
2019-01-19T13:41:54.388Z,5.50
2019-01-19T13:44:53.238Z,5.60
2019-01-19T13:47:40.834Z,5.60
2019-01-19T13:50:37.451Z,5.50
2019-01-19T13:53:43.066Z,5.50
2019-01-19T13:56:38.730Z,5.30
2019-01-19T13:59:30.986Z,5.10
2019-01-19T14:02:25.725Z,5.00
2019-01-19T14:05:15.846Z,4.90
2019-01-19T14:08:18.005Z,5.10
2019-01-19T14:11:16.658Z,5.10
2019-01-19T14:14:28.125Z,5.10
2019-01-19T14:17:31.539Z,5.10
2019-01-19T14:20:32.553Z,4.90
2019-01-19T14:23:36.020Z,4.80
2019-01-19T14:26:24.827Z,4.70
2019-01-19T14:29:08.548Z,4.70
2019-01-19T14:32:04.805Z,4.70
2019-01-19T14:34:40.701Z,4.70
2019-01-19T14:37:45.291Z,4.70
2019-01-19T14:40:36.479Z,4.70
2019-01-19T14:43:34.405Z,4.70
2019-01-19T14:46:33.338Z,4.60
2019-01-19T14:49:46.467Z,4.40
2019-01-19T14:52:51.540Z,4.20
2019-01-19T14:56:10.436Z,4.20
2019-01-19T14:58:57.283Z,4.20
2019-01-19T15:02:05.728Z,4.10
2019-01-19T15:04:50.030Z,4.00
2019-01-19T15:08:03.326Z,3.90
2019-01-19T15:11:11.085Z,3.80
2019-01-19T15:14:01.830Z,3.60
2019-01-19T15:17:09.238Z,3.50
2019-01-19T15:20:24.910Z,3.40
2019-01-19T15:23:18.879Z,3.40
2019-01-19T15:26:20.447Z,3.30
2019-01-19T15:29:00.051Z,3.20
2019-01-19T15:31:42.510Z,3.10
2019-01-19T15:34:41.590Z,3.10
2019-01-19T15:37:40.876Z,3.00
2019-01-19T15:40:20.434Z,2.90
2019-01-19T15:43:12.003Z,2.90
2019-01-19T15:46:11.614Z,2.90
2019-01-19T15:49:23.672Z,2.80
2019-01-19T15:52:27.506Z,2.70
2019-01-19T15:55:35.710Z,2.70
2019-01-19T15:58:46.959Z,2.60
2019-01-19T16:01:45.978Z,2.60
2019-01-19T16:04:40.750Z,2.60
2019-01-19T16:07:44.371Z,2.50
2019-01-19T16:10:39.504Z,2.40
2019-01-19T16:13:29.354Z,2.40
2019-01-19T16:16:34.206Z,2.40
2019-01-19T16:19:28.754Z,2.40
2019-01-19T16:22:24.842Z,2.40
2019-01-19T16:25:25.206Z,2.40
2019-01-19T16:28:10.566Z,2.50
2019-01-19T16:31:16.062Z,2.50
2019-01-19T16:34:09.657Z,2.50
2019-01-19T16:37:10.578Z,2.50
2019-01-19T16:40:05.250Z,2.50
2019-01-19T16:43:03.226Z,2.60
2019-01-19T16:46:01.034Z,2.60
2019-01-19T16:49:19.942Z,2.60
2019-01-19T16:52:32.082Z,2.70
2019-01-19T16:55:44.010Z,2.70
2019-01-19T16:58:52.778Z,2.80
2019-01-19T17:01:39.002Z,2.90
2019-01-19T17:04:30.874Z,3.00
2019-01-19T17:07:17.322Z,3.00
2019-01-19T17:09:59.821Z,2.90
2019-01-19T17:12:53.138Z,2.80
2019-01-19T17:16:09.801Z,2.80
2019-01-19T17:18:54.271Z,2.70
2019-01-19T17:21:39.961Z,2.60
2019-01-19T17:24:51.439Z,2.40
2019-01-19T17:27:40.317Z,2.40
2019-01-19T17:30:19.327Z,2.40
2019-01-19T17:33:01.294Z,2.30
2019-01-19T17:35:59.023Z,2.20
2019-01-19T17:38:51.606Z,2.20
2019-01-19T17:41:46.038Z,2.10
2019-01-19T17:44:37.224Z,2.10
2019-01-19T17:47:36.550Z,2.00
2019-01-19T17:50:40.243Z,2.00
2019-01-19T17:53:35.597Z,1.90
2019-01-19T17:56:29.609Z,1.90
2019-01-19T17:59:06.766Z,1.90
2019-01-19T18:01:52.994Z,1.80
2019-01-19T18:04:43.247Z,1.80
2019-01-19T18:07:26.042Z,1.70
2019-01-19T18:10:22.534Z,1.70
2019-01-19T18:13:24.957Z,1.70
2019-01-19T18:16:14.794Z,1.60
2019-01-19T18:19:01.379Z,1.60
2019-01-19T18:21:58.755Z,1.50
2019-01-19T18:25:33.080Z,1.50
2019-01-19T18:28:38.031Z,1.50
2019-01-19T18:31:37.666Z,1.40
2019-01-19T18:34:44.549Z,1.40
2019-01-19T18:37:43.550Z,1.40
2019-01-19T18:41:07.157Z,1.30
2019-01-19T18:44:10.805Z,1.30
2019-01-19T18:47:14.629Z,1.20
2019-01-19T18:50:21.313Z,1.20
2019-01-19T18:53:25.893Z,1.10
2019-01-19T18:56:12.654Z,1.00
2019-01-19T18:59:00.307Z,1.00
2019-01-19T19:01:43.970Z,0.90
2019-01-19T19:05:03.314Z,0.90
2019-01-19T19:07:53.142Z,0.90
2019-01-19T19:11:11.402Z,0.90
2019-01-19T19:14:06.080Z,0.80
2019-01-19T19:16:59.320Z,0.80
2019-01-19T19:20:05.900Z,0.80
2019-01-19T19:23:04.572Z,0.80
2019-01-19T19:26:16.291Z,0.80
2019-01-19T19:29:35.470Z,0.80
2019-01-19T19:32:42.806Z,0.70
2019-01-19T19:35:38.764Z,0.60
2019-01-19T19:38:28.101Z,0.60
2019-01-19T19:41:25.098Z,0.60
2019-01-19T19:44:17.483Z,0.50
2019-01-19T19:46:53.938Z,0.50
2019-01-19T19:50:04.557Z,0.50
2019-01-19T19:52:33.477Z,0.50
2019-01-19T19:55:01.051Z,0.40
2019-01-19T19:57:30.758Z,0.50
2019-01-19T20:00:00.009Z,0.40
2019-01-19T20:02:29.138Z,0.30
2019-01-19T20:04:58.423Z,0.30
2019-01-19T20:07:27.110Z,0.30
2019-01-19T20:09:56.050Z,0.30
2019-01-19T20:12:24.902Z,0.30
2019-01-19T20:14:53.599Z,0.30
2019-01-19T20:17:22.318Z,0.20
2019-01-19T20:19:51.290Z,0.20
2019-01-19T20:22:19.948Z,0.20
2019-01-19T20:24:48.680Z,0.10
2019-01-19T20:27:17.790Z,0.10
2019-01-19T20:29:46.754Z,0.10
2019-01-19T20:32:15.474Z,0.00
2019-01-19T20:34:44.762Z,0.00
2019-01-19T20:37:13.479Z,0.00
2019-01-19T20:39:42.371Z,0.00
2019-01-19T20:42:11.363Z,-0.10
2019-01-19T20:44:40.290Z,-0.10
2019-01-19T20:47:09.018Z,-0.10
2019-01-19T20:49:37.737Z,-0.10
2019-01-19T20:52:06.425Z,-0.10
2019-01-19T20:54:35.342Z,-0.10
2019-01-19T20:57:04.438Z,-0.10
2019-01-19T20:59:33.714Z,-0.20
2019-01-19T21:02:02.567Z,-0.20
2019-01-19T21:04:31.285Z,-0.20
2019-01-19T21:06:59.969Z,-0.10
2019-01-19T21:09:28.670Z,-0.20
2019-01-19T21:11:57.638Z,-0.20
2019-01-19T21:14:26.374Z,-0.20
2019-01-19T21:16:55.172Z,-0.20
2019-01-19T21:19:23.850Z,-0.30
2019-01-19T21:21:52.518Z,-0.30
2019-01-19T21:24:21.191Z,-0.30
2019-01-19T21:26:49.880Z,-0.30
2019-01-19T21:29:19.474Z,-0.30
2019-01-19T21:31:48.262Z,-0.30
2019-01-19T21:34:17.494Z,-0.30
2019-01-19T21:36:46.470Z,-0.30
2019-01-19T21:39:15.194Z,-0.30
2019-01-19T21:41:43.898Z,-0.40
2019-01-19T21:44:12.612Z,-0.40
2019-01-19T21:46:41.573Z,-0.40
2019-01-19T21:49:10.274Z,-0.40
2019-01-19T21:51:39.018Z,-0.40
2019-01-19T21:54:09.503Z,-0.40
2019-01-19T21:56:38.668Z,-0.40
2019-01-19T21:59:07.496Z,-0.40
2019-01-19T22:01:37.433Z,-0.40
2019-01-19T22:04:06.230Z,-0.40
2019-01-19T22:06:34.972Z,-0.50
2019-01-19T22:09:05.012Z,-0.50
2019-01-19T22:11:33.735Z,-0.50
2019-01-19T22:14:02.778Z,-0.60
2019-01-19T22:16:31.549Z,-0.60
2019-01-19T22:19:00.277Z,-0.60
2019-01-19T22:21:28.957Z,-0.60
2019-01-19T22:23:57.657Z,-0.60
2019-01-19T22:26:26.653Z,-0.60
2019-01-19T22:28:55.310Z,-0.70
2019-01-19T22:31:24.060Z,-0.60
2019-01-19T22:33:52.892Z,-0.70
2019-01-19T22:36:22.998Z,-0.70
2019-01-19T22:38:51.948Z,-0.70
2019-01-19T22:41:20.702Z,-0.80
2019-01-19T22:43:52.621Z,-0.80
2019-01-19T22:46:21.562Z,-0.80
2019-01-19T22:48:50.344Z,-0.80
2019-01-19T22:51:19.038Z,-0.80
2019-01-19T22:53:47.922Z,-0.80
2019-01-19T22:56:19.185Z,-0.80
2019-01-19T22:58:47.904Z,-0.80
2019-01-19T23:01:35.154Z,-0.80
2019-01-19T23:04:04.587Z,-0.80
2019-01-19T23:06:33.250Z,-0.80
2019-01-19T23:09:02.079Z,-0.90
2019-01-19T23:11:33.975Z,-0.90
2019-01-19T23:14:01.340Z,-0.90
2019-01-19T23:16:30.098Z,-0.90
2019-01-19T23:18:58.804Z,-0.80
2019-01-19T23:21:27.537Z,-0.80
2019-01-19T23:23:56.315Z,-0.80
2019-01-19T23:26:25.421Z,-0.80
2019-01-19T23:28:54.104Z,-0.90
2019-01-19T23:31:22.912Z,-0.90
2019-01-19T23:33:51.856Z,-0.90
2019-01-19T23:36:20.621Z,-0.90
2019-01-19T23:38:49.666Z,-0.90
2019-01-19T23:41:18.362Z,-1.00
2019-01-19T23:43:47.115Z,-1.00
2019-01-19T23:46:16.131Z,-1.00
2019-01-19T23:48:45.091Z,-1.00
2019-01-19T23:51:13.799Z,-1.00
2019-01-19T23:53:42.565Z,-1.00
2019-01-19T23:56:11.234Z,-1.00
2019-01-19T23:58:39.899Z,-1.00
